sensor_id;sensor_type;location;lat;lon;timestamp;P1;durP1;ratioP1;P2;durP2;ratioP2
54555;SDS011;57291;37.520;15.106;2023-06-10T00:02:18;12.43;;;6.90;;
54555;SDS011;57291;37.520;15.106;2023-06-10T00:04:45;13.63;;;8.05;;
54555;SDS011;57291;37.520;15.106;2023-06-10T00:07:13;10.38;;;6.63;;
54555;SDS011;57291;37.520;15.106;2023-06-10T00:09:40;18.13;;;7.63;;
54555;SDS011;57291;37.520;15.106;2023-06-10T00:12:08;13.00;;;7.60;;
54555;SDS011;57291;37.520;15.106;2023-06-10T00:14:39;15.60;;;8.38;;
54555;SDS011;57291;37.520;15.106;2023-06-10T00:17:09;16.27;;;7.50;;
54555;SDS011;57291;37.520;15.106;2023-06-10T00:19:37;13.40;;;8.38;;
54555;SDS011;57291;37.520;15.106;2023-06-10T00:22:08;17.30;;;9.35;;
54555;SDS011;57291;37.520;15.106;2023-06-10T00:24:37;15.23;;;9.25;;
54555;SDS011;57291;37.520;15.106;2023-06-10T00:27:05;16.95;;;9.05;;
54555;SDS011;57291;37.520;15.106;2023-06-10T00:29:34;17.92;;;9.18;;
54555;SDS011;57291;37.520;15.106;2023-06-10T00:32:01;13.63;;;9.23;;
54555;SDS011;57291;37.520;15.106;2023-06-10T00:34:29;15.85;;;9.75;;
54555;SDS011;57291;37.520;15.106;2023-06-10T00:36:57;16.60;;;10.15;;
54555;SDS011;57291;37.520;15.106;2023-06-10T00:39:24;14.57;;;9.55;;
54555;SDS011;57291;37.520;15.106;2023-06-10T00:41:51;15.63;;;10.48;;
54555;SDS011;57291;37.520;15.106;2023-06-10T00:44:19;16.45;;;9.38;;
54555;SDS011;57291;37.520;15.106;2023-06-10T00:46:46;16.73;;;8.95;;
54555;SDS011;57291;37.520;15.106;2023-06-10T00:49:14;16.20;;;8.15;;
54555;SDS011;57291;37.520;15.106;2023-06-10T00:51:42;13.32;;;8.13;;
54555;SDS011;57291;37.520;15.106;2023-06-10T00:54:09;11.38;;;7.97;;
54555;SDS011;57291;37.520;15.106;2023-06-10T00:56:40;10.73;;;7.10;;
54555;SDS011;57291;37.520;15.106;2023-06-10T00:59:09;11.27;;;7.55;;
54555;SDS011;57291;37.520;15.106;2023-06-10T01:01:37;14.30;;;7.90;;
54555;SDS011;57291;37.520;15.106;2023-06-10T01:04:06;17.25;;;7.63;;
54555;SDS011;57291;37.520;15.106;2023-06-10T01:06:41;14.43;;;6.95;;
54555;SDS011;57291;37.520;15.106;2023-06-10T01:09:22;12.30;;;6.93;;
54555;SDS011;57291;37.520;15.106;2023-06-10T01:14:59;11.73;;;7.15;;
54555;SDS011;57291;37.520;15.106;2023-06-10T01:17:28;17.45;;;7.75;;
54555;SDS011;57291;37.520;15.106;2023-06-10T01:19:57;11.65;;;6.72;;
54555;SDS011;57291;37.520;15.106;2023-06-10T01:22:25;14.00;;;6.43;;
54555;SDS011;57291;37.520;15.106;2023-06-10T01:24:59;14.35;;;7.28;;
54555;SDS011;57291;37.520;15.106;2023-06-10T01:27:29;12.32;;;6.47;;
54555;SDS011;57291;37.520;15.106;2023-06-10T01:30:01;16.50;;;6.78;;
54555;SDS011;57291;37.520;15.106;2023-06-10T01:32:48;17.10;;;6.78;;
54555;SDS011;57291;37.520;15.106;2023-06-10T01:35:18;15.45;;;6.15;;
54555;SDS011;57291;37.520;15.106;2023-06-10T01:37:51;25.65;;;6.82;;
54555;SDS011;57291;37.520;15.106;2023-06-10T01:40:23;21.05;;;6.95;;
54555;SDS011;57291;37.520;15.106;2023-06-10T01:42:52;14.85;;;6.70;;
54555;SDS011;57291;37.520;15.106;2023-06-10T01:45:19;21.63;;;6.75;;
54555;SDS011;57291;37.520;15.106;2023-06-10T01:47:47;14.00;;;7.45;;
54555;SDS011;57291;37.520;15.106;2023-06-10T01:50:14;13.90;;;6.97;;
54555;SDS011;57291;37.520;15.106;2023-06-10T01:52:43;16.50;;;6.78;;
54555;SDS011;57291;37.520;15.106;2023-06-10T01:55:10;13.68;;;6.85;;
54555;SDS011;57291;37.520;15.106;2023-06-10T01:57:39;14.60;;;6.50;;
54555;SDS011;57291;37.520;15.106;2023-06-10T02:00:06;15.43;;;6.80;;
54555;SDS011;57291;37.520;15.106;2023-06-10T02:02:40;20.35;;;7.47;;
54555;SDS011;57291;37.520;15.106;2023-06-10T02:05:07;11.68;;;6.78;;
54555;SDS011;57291;37.520;15.106;2023-06-10T02:07:35;12.15;;;6.60;;
54555;SDS011;57291;37.520;15.106;2023-06-10T02:10:04;13.65;;;6.40;;
54555;SDS011;57291;37.520;15.106;2023-06-10T02:12:32;15.30;;;6.68;;
54555;SDS011;57291;37.520;15.106;2023-06-10T02:14:59;12.90;;;6.65;;
54555;SDS011;57291;37.520;15.106;2023-06-10T02:17:26;11.70;;;6.40;;
54555;SDS011;57291;37.520;15.106;2023-06-10T02:19:54;14.73;;;6.70;;
54555;SDS011;57291;37.520;15.106;2023-06-10T02:22:23;12.38;;;6.50;;
54555;SDS011;57291;37.520;15.106;2023-06-10T02:24:50;14.50;;;6.25;;
54555;SDS011;57291;37.520;15.106;2023-06-10T02:27:18;14.90;;;6.78;;
54555;SDS011;57291;37.520;15.106;2023-06-10T02:29:45;17.30;;;6.97;;
54555;SDS011;57291;37.520;15.106;2023-06-10T02:32:12;17.73;;;7.30;;
54555;SDS011;57291;37.520;15.106;2023-06-10T02:34:41;14.60;;;7.05;;
54555;SDS011;57291;37.520;15.106;2023-06-10T02:37:10;14.30;;;6.95;;
54555;SDS011;57291;37.520;15.106;2023-06-10T02:39:37;16.98;;;6.68;;
54555;SDS011;57291;37.520;15.106;2023-06-10T02:42:09;11.93;;;6.82;;
54555;SDS011;57291;37.520;15.106;2023-06-10T02:44:37;14.25;;;7.10;;
54555;SDS011;57291;37.520;15.106;2023-06-10T02:47:07;15.68;;;7.10;;
54555;SDS011;57291;37.520;15.106;2023-06-10T02:49:36;16.58;;;6.97;;
54555;SDS011;57291;37.520;15.106;2023-06-10T02:52:03;14.27;;;7.30;;
54555;SDS011;57291;37.520;15.106;2023-06-10T02:54:31;13.50;;;6.75;;
54555;SDS011;57291;37.520;15.106;2023-06-10T02:56:58;17.55;;;6.72;;
54555;SDS011;57291;37.520;15.106;2023-06-10T02:59:27;15.52;;;6.82;;
54555;SDS011;57291;37.520;15.106;2023-06-10T03:01:55;17.77;;;7.45;;
54555;SDS011;57291;37.520;15.106;2023-06-10T03:04:24;21.25;;;7.10;;
54555;SDS011;57291;37.520;15.106;2023-06-10T03:06:59;19.60;;;7.15;;
54555;SDS011;57291;37.520;15.106;2023-06-10T03:09:33;16.77;;;6.68;;
54555;SDS011;57291;37.520;15.106;2023-06-10T03:12:02;17.40;;;7.65;;
54555;SDS011;57291;37.520;15.106;2023-06-10T03:14:34;16.25;;;7.57;;
54555;SDS011;57291;37.520;15.106;2023-06-10T03:17:01;20.25;;;7.22;;
54555;SDS011;57291;37.520;15.106;2023-06-10T03:19:32;17.15;;;7.22;;
54555;SDS011;57291;37.520;15.106;2023-06-10T03:22:07;15.55;;;7.20;;
54555;SDS011;57291;37.520;15.106;2023-06-10T03:24:41;15.20;;;7.80;;
54555;SDS011;57291;37.520;15.106;2023-06-10T03:27:10;17.08;;;6.90;;
54555;SDS011;57291;37.520;15.106;2023-06-10T03:29:42;17.75;;;7.28;;
54555;SDS011;57291;37.520;15.106;2023-06-10T03:32:10;18.05;;;6.72;;
54555;SDS011;57291;37.520;15.106;2023-06-10T03:34:39;17.40;;;7.30;;
54555;SDS011;57291;37.520;15.106;2023-06-10T03:37:08;13.30;;;7.05;;
54555;SDS011;57291;37.520;15.106;2023-06-10T03:39:36;18.23;;;7.78;;
54555;SDS011;57291;37.520;15.106;2023-06-10T03:42:03;20.83;;;7.65;;
54555;SDS011;57291;37.520;15.106;2023-06-10T03:44:31;15.38;;;7.32;;
54555;SDS011;57291;37.520;15.106;2023-06-10T03:46:59;12.48;;;6.93;;
54555;SDS011;57291;37.520;15.106;2023-06-10T03:49:26;17.00;;;8.77;;
54555;SDS011;57291;37.520;15.106;2023-06-10T03:51:59;14.02;;;7.55;;
54555;SDS011;57291;37.520;15.106;2023-06-10T03:54:27;20.13;;;8.10;;
54555;SDS011;57291;37.520;15.106;2023-06-10T03:56:54;14.30;;;7.90;;
54555;SDS011;57291;37.520;15.106;2023-06-10T03:59:21;18.35;;;8.43;;
54555;SDS011;57291;37.520;15.106;2023-06-10T04:01:48;14.10;;;7.38;;
54555;SDS011;57291;37.520;15.106;2023-06-10T04:04:16;14.52;;;7.65;;
54555;SDS011;57291;37.520;15.106;2023-06-10T04:06:44;13.60;;;7.38;;
54555;SDS011;57291;37.520;15.106;2023-06-10T04:09:11;18.70;;;7.93;;
54555;SDS011;57291;37.520;15.106;2023-06-10T04:11:39;16.33;;;7.13;;
54555;SDS011;57291;37.520;15.106;2023-06-10T04:14:09;17.77;;;7.30;;
54555;SDS011;57291;37.520;15.106;2023-06-10T04:16:37;20.05;;;6.47;;
54555;SDS011;57291;37.520;15.106;2023-06-10T04:19:05;16.77;;;5.95;;
54555;SDS011;57291;37.520;15.106;2023-06-10T04:21:32;18.77;;;5.57;;
54555;SDS011;57291;37.520;15.106;2023-06-10T04:23:59;10.90;;;4.78;;
54555;SDS011;57291;37.520;15.106;2023-06-10T04:26:27;11.70;;;5.13;;
54555;SDS011;57291;37.520;15.106;2023-06-10T04:28:55;13.55;;;4.63;;
54555;SDS011;57291;37.520;15.106;2023-06-10T04:31:22;13.55;;;5.63;;
54555;SDS011;57291;37.520;15.106;2023-06-10T04:33:50;12.85;;;4.75;;
54555;SDS011;57291;37.520;15.106;2023-06-10T04:36:17;10.93;;;4.80;;
54555;SDS011;57291;37.520;15.106;2023-06-10T04:38:44;10.68;;;4.35;;
54555;SDS011;57291;37.520;15.106;2023-06-10T04:41:13;14.27;;;3.90;;
54555;SDS011;57291;37.520;15.106;2023-06-10T04:43:40;15.25;;;4.22;;
54555;SDS011;57291;37.520;15.106;2023-06-10T04:46:07;11.80;;;4.43;;
54555;SDS011;57291;37.520;15.106;2023-06-10T04:48:35;11.27;;;4.35;;
54555;SDS011;57291;37.520;15.106;2023-06-10T04:51:03;8.98;;;4.35;;
54555;SDS011;57291;37.520;15.106;2023-06-10T04:53:32;9.93;;;4.55;;
54555;SDS011;57291;37.520;15.106;2023-06-10T04:55:59;13.68;;;4.60;;
54555;SDS011;57291;37.520;15.106;2023-06-10T04:58:26;9.00;;;4.03;;
54555;SDS011;57291;37.520;15.106;2023-06-10T05:00:53;15.50;;;4.45;;
54555;SDS011;57291;37.520;15.106;2023-06-10T05:03:20;15.18;;;4.35;;
54555;SDS011;57291;37.520;15.106;2023-06-10T05:05:48;12.45;;;4.47;;
54555;SDS011;57291;37.520;15.106;2023-06-10T05:08:15;14.70;;;5.43;;
54555;SDS011;57291;37.520;15.106;2023-06-10T05:10:42;13.20;;;5.18;;
54555;SDS011;57291;37.520;15.106;2023-06-10T05:13:09;12.52;;;4.50;;
54555;SDS011;57291;37.520;15.106;2023-06-10T05:15:36;9.27;;;4.40;;
54555;SDS011;57291;37.520;15.106;2023-06-10T05:18:04;13.52;;;5.13;;
54555;SDS011;57291;37.520;15.106;2023-06-10T05:20:31;12.02;;;5.30;;
54555;SDS011;57291;37.520;15.106;2023-06-10T05:22:58;13.30;;;5.20;;
54555;SDS011;57291;37.520;15.106;2023-06-10T05:25:26;14.80;;;5.10;;
54555;SDS011;57291;37.520;15.106;2023-06-10T05:27:56;12.30;;;4.82;;
54555;SDS011;57291;37.520;15.106;2023-06-10T05:30:24;14.63;;;5.82;;
54555;SDS011;57291;37.520;15.106;2023-06-10T05:32:52;12.77;;;5.10;;
54555;SDS011;57291;37.520;15.106;2023-06-10T05:35:19;13.98;;;4.95;;
54555;SDS011;57291;37.520;15.106;2023-06-10T05:37:47;12.20;;;5.28;;
54555;SDS011;57291;37.520;15.106;2023-06-10T05:40:14;12.23;;;5.72;;
54555;SDS011;57291;37.520;15.106;2023-06-10T05:42:41;17.27;;;6.53;;
54555;SDS011;57291;37.520;15.106;2023-06-10T05:45:09;13.90;;;6.57;;
54555;SDS011;57291;37.520;15.106;2023-06-10T05:47:36;10.55;;;6.28;;
54555;SDS011;57291;37.520;15.106;2023-06-10T05:50:04;13.85;;;5.60;;
54555;SDS011;57291;37.520;15.106;2023-06-10T05:52:36;14.10;;;6.45;;
54555;SDS011;57291;37.520;15.106;2023-06-10T05:55:03;13.85;;;7.00;;
54555;SDS011;57291;37.520;15.106;2023-06-10T05:57:30;14.32;;;7.25;;
54555;SDS011;57291;37.520;15.106;2023-06-10T05:59:58;15.73;;;7.35;;
54555;SDS011;57291;37.520;15.106;2023-06-10T06:02:25;13.60;;;6.65;;
54555;SDS011;57291;37.520;15.106;2023-06-10T06:04:52;16.92;;;7.78;;
54555;SDS011;57291;37.520;15.106;2023-06-10T06:07:19;16.27;;;7.60;;
54555;SDS011;57291;37.520;15.106;2023-06-10T06:09:47;10.90;;;6.90;;
54555;SDS011;57291;37.520;15.106;2023-06-10T06:12:14;14.65;;;7.15;;
54555;SDS011;57291;37.520;15.106;2023-06-10T06:14:41;15.20;;;7.65;;
54555;SDS011;57291;37.520;15.106;2023-06-10T06:17:09;21.20;;;7.95;;
54555;SDS011;57291;37.520;15.106;2023-06-10T06:19:36;24.80;;;7.95;;
54555;SDS011;57291;37.520;15.106;2023-06-10T06:22:03;16.38;;;7.60;;
54555;SDS011;57291;37.520;15.106;2023-06-10T06:24:31;14.95;;;7.25;;
54555;SDS011;57291;37.520;15.106;2023-06-10T06:26:58;14.70;;;7.30;;
54555;SDS011;57291;37.520;15.106;2023-06-10T06:29:25;18.45;;;7.25;;
54555;SDS011;57291;37.520;15.106;2023-06-10T06:31:53;18.60;;;7.82;;
54555;SDS011;57291;37.520;15.106;2023-06-10T06:34:20;16.27;;;7.30;;
54555;SDS011;57291;37.520;15.106;2023-06-10T06:36:47;13.05;;;7.13;;
54555;SDS011;57291;37.520;15.106;2023-06-10T06:39:14;17.38;;;8.05;;
54555;SDS011;57291;37.520;15.106;2023-06-10T06:41:42;13.27;;;7.25;;
54555;SDS011;57291;37.520;15.106;2023-06-10T06:44:09;15.85;;;7.10;;
54555;SDS011;57291;37.520;15.106;2023-06-10T06:46:37;17.58;;;8.02;;
54555;SDS011;57291;37.520;15.106;2023-06-10T06:49:05;16.80;;;8.30;;
54555;SDS011;57291;37.520;15.106;2023-06-10T06:51:32;17.92;;;8.50;;
54555;SDS011;57291;37.520;15.106;2023-06-10T06:53:59;20.83;;;8.07;;
54555;SDS011;57291;37.520;15.106;2023-06-10T06:56:26;16.23;;;7.90;;
54555;SDS011;57291;37.520;15.106;2023-06-10T06:58:54;17.20;;;9.27;;
54555;SDS011;57291;37.520;15.106;2023-06-10T07:01:23;15.85;;;7.95;;
54555;SDS011;57291;37.520;15.106;2023-06-10T07:03:51;16.05;;;8.98;;
54555;SDS011;57291;37.520;15.106;2023-06-10T07:06:18;13.18;;;9.00;;
54555;SDS011;57291;37.520;15.106;2023-06-10T07:08:45;20.17;;;9.38;;
54555;SDS011;57291;37.520;15.106;2023-06-10T07:11:12;21.38;;;9.60;;
54555;SDS011;57291;37.520;15.106;2023-06-10T07:13:41;16.98;;;7.88;;
54555;SDS011;57291;37.520;15.106;2023-06-10T07:16:08;17.90;;;8.13;;
54555;SDS011;57291;37.520;15.106;2023-06-10T07:18:36;17.00;;;8.35;;
54555;SDS011;57291;37.520;15.106;2023-06-10T07:21:03;17.45;;;8.75;;
54555;SDS011;57291;37.520;15.106;2023-06-10T07:23:30;13.60;;;7.45;;
54555;SDS011;57291;37.520;15.106;2023-06-10T07:25:57;15.55;;;8.07;;
54555;SDS011;57291;37.520;15.106;2023-06-10T07:28:24;13.73;;;7.63;;
54555;SDS011;57291;37.520;15.106;2023-06-10T07:30:52;14.95;;;7.93;;
54555;SDS011;57291;37.520;15.106;2023-06-10T07:33:19;13.35;;;7.78;;
54555;SDS011;57291;37.520;15.106;2023-06-10T07:35:46;13.75;;;7.70;;
54555;SDS011;57291;37.520;15.106;2023-06-10T07:38:13;17.45;;;7.72;;
54555;SDS011;57291;37.520;15.106;2023-06-10T07:40:41;13.25;;;6.75;;
54555;SDS011;57291;37.520;15.106;2023-06-10T07:43:08;20.13;;;7.05;;
54555;SDS011;57291;37.520;15.106;2023-06-10T07:45:35;19.92;;;7.25;;
54555;SDS011;57291;37.520;15.106;2023-06-10T07:48:03;13.82;;;7.18;;
54555;SDS011;57291;37.520;15.106;2023-06-10T07:50:30;13.48;;;6.45;;
54555;SDS011;57291;37.520;15.106;2023-06-10T07:52:58;14.93;;;6.85;;
54555;SDS011;57291;37.520;15.106;2023-06-10T07:55:25;15.27;;;6.88;;
54555;SDS011;57291;37.520;15.106;2023-06-10T07:57:53;15.70;;;6.95;;
54555;SDS011;57291;37.520;15.106;2023-06-10T08:00:21;14.93;;;6.43;;
54555;SDS011;57291;37.520;15.106;2023-06-10T08:02:48;11.63;;;5.55;;
54555;SDS011;57291;37.520;15.106;2023-06-10T08:05:16;13.68;;;6.82;;
54555;SDS011;57291;37.520;15.106;2023-06-10T08:07:44;15.07;;;7.05;;
54555;SDS011;57291;37.520;15.106;2023-06-10T08:10:11;11.82;;;5.95;;
54555;SDS011;57291;37.520;15.106;2023-06-10T08:12:39;14.68;;;6.20;;
54555;SDS011;57291;37.520;15.106;2023-06-10T08:15:06;15.50;;;7.07;;
54555;SDS011;57291;37.520;15.106;2023-06-10T08:17:34;14.95;;;6.70;;
54555;SDS011;57291;37.520;15.106;2023-06-10T08:20:02;9.88;;;5.53;;
54555;SDS011;57291;37.520;15.106;2023-06-10T08:22:29;12.57;;;6.53;;
54555;SDS011;57291;37.520;15.106;2023-06-10T08:24:56;12.20;;;6.55;;
54555;SDS011;57291;37.520;15.106;2023-06-10T08:27:23;13.52;;;6.43;;
54555;SDS011;57291;37.520;15.106;2023-06-10T08:29:51;12.73;;;6.32;;
54555;SDS011;57291;37.520;15.106;2023-06-10T08:32:18;14.52;;;6.95;;
54555;SDS011;57291;37.520;15.106;2023-06-10T08:34:46;11.32;;;6.18;;
54555;SDS011;57291;37.520;15.106;2023-06-10T08:37:13;11.45;;;6.22;;
54555;SDS011;57291;37.520;15.106;2023-06-10T08:39:40;15.10;;;6.95;;
54555;SDS011;57291;37.520;15.106;2023-06-10T08:42:11;13.35;;;7.03;;
54555;SDS011;57291;37.520;15.106;2023-06-10T08:44:55;13.90;;;6.07;;
54555;SDS011;57291;37.520;15.106;2023-06-10T08:47:23;13.85;;;6.55;;
54555;SDS011;57291;37.520;15.106;2023-06-10T08:49:52;13.98;;;5.88;;
54555;SDS011;57291;37.520;15.106;2023-06-10T08:52:23;13.68;;;5.75;;
54555;SDS011;57291;37.520;15.106;2023-06-10T08:57:27;10.45;;;5.40;;
54555;SDS011;57291;37.520;15.106;2023-06-10T08:59:57;10.65;;;5.30;;
54555;SDS011;57291;37.520;15.106;2023-06-10T09:02:25;14.50;;;5.70;;
54555;SDS011;57291;37.520;15.106;2023-06-10T09:04:55;14.52;;;5.90;;
54555;SDS011;57291;37.520;15.106;2023-06-10T09:07:24;11.82;;;6.30;;
54555;SDS011;57291;37.520;15.106;2023-06-10T09:09:53;11.38;;;6.03;;
54555;SDS011;57291;37.520;15.106;2023-06-10T09:12:21;13.80;;;5.97;;
54555;SDS011;57291;37.520;15.106;2023-06-10T09:14:49;12.85;;;6.53;;
54555;SDS011;57291;37.520;15.106;2023-06-10T09:17:17;12.82;;;6.40;;
54555;SDS011;57291;37.520;15.106;2023-06-10T09:19:45;12.55;;;6.47;;
54555;SDS011;57291;37.520;15.106;2023-06-10T09:22:13;14.88;;;6.38;;
54555;SDS011;57291;37.520;15.106;2023-06-10T09:24:40;11.95;;;6.15;;
54555;SDS011;57291;37.520;15.106;2023-06-10T09:27:08;15.00;;;6.53;;
54555;SDS011;57291;37.520;15.106;2023-06-10T09:29:45;15.73;;;6.53;;
54555;SDS011;57291;37.520;15.106;2023-06-10T09:32:15;16.83;;;6.90;;
54555;SDS011;57291;37.520;15.106;2023-06-10T09:34:44;15.73;;;6.65;;
54555;SDS011;57291;37.520;15.106;2023-06-10T09:37:12;13.95;;;6.20;;
54555;SDS011;57291;37.520;15.106;2023-06-10T09:39:42;12.15;;;6.22;;
54555;SDS011;57291;37.520;15.106;2023-06-10T09:42:15;20.58;;;6.93;;
54555;SDS011;57291;37.520;15.106;2023-06-10T09:44:51;12.77;;;6.55;;
54555;SDS011;57291;37.520;15.106;2023-06-10T09:47:21;17.25;;;6.88;;
54555;SDS011;57291;37.520;15.106;2023-06-10T09:49:49;14.75;;;6.38;;
54555;SDS011;57291;37.520;15.106;2023-06-10T09:52:26;12.73;;;5.72;;
54555;SDS011;57291;37.520;15.106;2023-06-10T09:54:58;13.90;;;5.05;;
54555;SDS011;57291;37.520;15.106;2023-06-10T09:57:30;18.90;;;6.15;;
54555;SDS011;57291;37.520;15.106;2023-06-10T10:00:06;11.82;;;5.85;;
54555;SDS011;57291;37.520;15.106;2023-06-10T10:02:56;12.88;;;5.25;;
54555;SDS011;57291;37.520;15.106;2023-06-10T10:05:23;16.00;;;5.72;;
54555;SDS011;57291;37.520;15.106;2023-06-10T10:07:51;18.25;;;5.82;;
54555;SDS011;57291;37.520;15.106;2023-06-10T10:10:20;14.70;;;5.13;;
54555;SDS011;57291;37.520;15.106;2023-06-10T10:12:51;14.57;;;5.35;;
54555;SDS011;57291;37.520;15.106;2023-06-10T10:15:24;13.50;;;5.32;;
54555;SDS011;57291;37.520;15.106;2023-06-10T10:17:58;17.90;;;5.60;;
54555;SDS011;57291;37.520;15.106;2023-06-10T10:20:33;13.07;;;5.38;;
54555;SDS011;57291;37.520;15.106;2023-06-10T10:23:04;18.38;;;5.35;;
54555;SDS011;57291;37.520;15.106;2023-06-10T10:25:38;11.65;;;5.05;;
54555;SDS011;57291;37.520;15.106;2023-06-10T10:28:08;16.38;;;5.40;;
54555;SDS011;57291;37.520;15.106;2023-06-10T10:30:40;21.33;;;5.45;;
54555;SDS011;57291;37.520;15.106;2023-06-10T10:36:12;13.48;;;5.53;;
54555;SDS011;57291;37.520;15.106;2023-06-10T10:38:41;17.25;;;4.93;;
54555;SDS011;57291;37.520;15.106;2023-06-10T10:41:09;13.70;;;5.13;;
54555;SDS011;57291;37.520;15.106;2023-06-10T10:43:37;18.00;;;5.38;;
54555;SDS011;57291;37.520;15.106;2023-06-10T10:46:08;10.57;;;5.03;;
54555;SDS011;57291;37.520;15.106;2023-06-10T10:48:38;13.50;;;5.20;;
54555;SDS011;57291;37.520;15.106;2023-06-10T10:51:08;15.65;;;5.43;;
54555;SDS011;57291;37.520;15.106;2023-06-10T10:53:39;16.13;;;4.97;;
54555;SDS011;57291;37.520;15.106;2023-06-10T10:56:07;19.88;;;5.85;;
54555;SDS011;57291;37.520;15.106;2023-06-10T10:59:06;14.32;;;5.13;;
54555;SDS011;57291;37.520;15.106;2023-06-10T11:01:42;13.63;;;5.00;;
54555;SDS011;57291;37.520;15.106;2023-06-10T11:04:13;13.40;;;5.00;;
54555;SDS011;57291;37.520;15.106;2023-06-10T11:06:53;10.85;;;4.90;;
54555;SDS011;57291;37.520;15.106;2023-06-10T11:09:25;17.02;;;5.05;;
54555;SDS011;57291;37.520;15.106;2023-06-10T11:11:56;11.90;;;5.63;;
54555;SDS011;57291;37.520;15.106;2023-06-10T11:14:26;13.65;;;5.93;;
54555;SDS011;57291;37.520;15.106;2023-06-10T11:16:58;13.90;;;5.53;;
54555;SDS011;57291;37.520;15.106;2023-06-10T11:19:35;15.80;;;5.20;;
54555;SDS011;57291;37.520;15.106;2023-06-10T11:22:06;12.55;;;5.38;;
54555;SDS011;57291;37.520;15.106;2023-06-10T11:24:34;16.60;;;5.75;;
54555;SDS011;57291;37.520;15.106;2023-06-10T11:27:21;13.52;;;5.47;;
54555;SDS011;57291;37.520;15.106;2023-06-10T11:32:31;17.13;;;5.38;;
54555;SDS011;57291;37.520;15.106;2023-06-10T11:35:02;15.68;;;5.68;;
54555;SDS011;57291;37.520;15.106;2023-06-10T11:37:31;15.57;;;5.25;;
54555;SDS011;57291;37.520;15.106;2023-06-10T11:39:59;14.80;;;4.95;;
54555;SDS011;57291;37.520;15.106;2023-06-10T11:42:26;14.55;;;5.45;;
54555;SDS011;57291;37.520;15.106;2023-06-10T11:44:54;19.33;;;5.93;;
54555;SDS011;57291;37.520;15.106;2023-06-10T11:47:21;14.00;;;5.43;;
54555;SDS011;57291;37.520;15.106;2023-06-10T11:49:55;17.40;;;5.40;;
54555;SDS011;57291;37.520;15.106;2023-06-10T11:52:27;15.00;;;5.95;;
54555;SDS011;57291;37.520;15.106;2023-06-10T11:54:55;15.48;;;4.53;;
54555;SDS011;57291;37.520;15.106;2023-06-10T11:57:23;11.00;;;5.00;;
54555;SDS011;57291;37.520;15.106;2023-06-10T11:59:50;15.52;;;5.03;;
54555;SDS011;57291;37.520;15.106;2023-06-10T12:02:18;15.30;;;5.00;;
54555;SDS011;57291;37.520;15.106;2023-06-10T12:04:46;9.93;;;4.40;;
54555;SDS011;57291;37.520;15.106;2023-06-10T12:07:19;15.70;;;5.43;;
54555;SDS011;57291;37.520;15.106;2023-06-10T12:09:57;15.27;;;5.47;;
54555;SDS011;57291;37.520;15.106;2023-06-10T12:12:37;13.93;;;5.55;;
54555;SDS011;57291;37.520;15.106;2023-06-10T12:15:05;11.85;;;5.05;;
54555;SDS011;57291;37.520;15.106;2023-06-10T12:20:07;12.15;;;5.32;;
54555;SDS011;57291;37.520;15.106;2023-06-10T12:22:37;14.63;;;5.55;;
54555;SDS011;57291;37.520;15.106;2023-06-10T12:25:05;13.63;;;4.88;;
54555;SDS011;57291;37.520;15.106;2023-06-10T12:27:34;13.38;;;5.32;;
54555;SDS011;57291;37.520;15.106;2023-06-10T12:30:04;13.32;;;5.60;;
54555;SDS011;57291;37.520;15.106;2023-06-10T12:32:39;18.83;;;5.90;;
54555;SDS011;57291;37.520;15.106;2023-06-10T12:35:08;13.32;;;5.10;;
54555;SDS011;57291;37.520;15.106;2023-06-10T12:37:41;12.45;;;4.90;;
54555;SDS011;57291;37.520;15.106;2023-06-10T12:40:10;12.25;;;5.10;;
54555;SDS011;57291;37.520;15.106;2023-06-10T12:42:38;12.52;;;4.85;;
54555;SDS011;57291;37.520;15.106;2023-06-10T12:45:06;9.15;;;4.40;;
54555;SDS011;57291;37.520;15.106;2023-06-10T12:47:37;9.43;;;4.93;;
54555;SDS011;57291;37.520;15.106;2023-06-10T12:50:08;14.05;;;5.13;;
54555;SDS011;57291;37.520;15.106;2023-06-10T12:52:39;13.32;;;5.25;;
54555;SDS011;57291;37.520;15.106;2023-06-10T12:55:06;11.73;;;4.60;;
54555;SDS011;57291;37.520;15.106;2023-06-10T12:57:35;13.80;;;5.25;;
54555;SDS011;57291;37.520;15.106;2023-06-10T13:00:02;9.50;;;4.47;;
54555;SDS011;57291;37.520;15.106;2023-06-10T13:02:31;7.60;;;4.00;;
54555;SDS011;57291;37.520;15.106;2023-06-10T13:04:59;15.57;;;4.88;;
54555;SDS011;57291;37.520;15.106;2023-06-10T13:07:27;12.38;;;4.25;;
54555;SDS011;57291;37.520;15.106;2023-06-10T13:09:55;15.27;;;4.63;;
54555;SDS011;57291;37.520;15.106;2023-06-10T13:12:22;13.55;;;4.63;;
54555;SDS011;57291;37.520;15.106;2023-06-10T13:15:08;11.32;;;4.47;;
54555;SDS011;57291;37.520;15.106;2023-06-10T13:17:37;13.82;;;4.65;;
54555;SDS011;57291;37.520;15.106;2023-06-10T13:20:05;8.60;;;4.35;;
54555;SDS011;57291;37.520;15.106;2023-06-10T13:22:34;10.77;;;4.45;;
54555;SDS011;57291;37.520;15.106;2023-06-10T13:25:03;13.13;;;4.10;;
54555;SDS011;57291;37.520;15.106;2023-06-10T13:27:34;8.15;;;3.63;;
54555;SDS011;57291;37.520;15.106;2023-06-10T13:30:02;10.75;;;3.70;;
54555;SDS011;57291;37.520;15.106;2023-06-10T13:32:29;10.57;;;3.75;;
54555;SDS011;57291;37.520;15.106;2023-06-10T13:34:58;8.68;;;4.13;;
54555;SDS011;57291;37.520;15.106;2023-06-10T13:37:30;10.70;;;4.30;;
54555;SDS011;57291;37.520;15.106;2023-06-10T13:39:57;9.10;;;3.63;;
54555;SDS011;57291;37.520;15.106;2023-06-10T13:42:25;8.52;;;3.60;;
54555;SDS011;57291;37.520;15.106;2023-06-10T13:44:53;8.55;;;3.75;;
54555;SDS011;57291;37.520;15.106;2023-06-10T13:47:21;8.45;;;3.17;;
54555;SDS011;57291;37.520;15.106;2023-06-10T13:49:49;8.35;;;3.55;;
54555;SDS011;57291;37.520;15.106;2023-06-10T13:52:17;16.65;;;3.90;;
54555;SDS011;57291;37.520;15.106;2023-06-10T13:54:47;8.77;;;3.40;;
54555;SDS011;57291;37.520;15.106;2023-06-10T13:57:15;9.07;;;3.40;;
54555;SDS011;57291;37.520;15.106;2023-06-10T13:59:42;11.18;;;3.35;;
54555;SDS011;57291;37.520;15.106;2023-06-10T14:02:10;10.23;;;3.15;;
54555;SDS011;57291;37.520;15.106;2023-06-10T14:04:38;10.25;;;3.50;;
54555;SDS011;57291;37.520;15.106;2023-06-10T14:07:05;11.18;;;3.22;;
54555;SDS011;57291;37.520;15.106;2023-06-10T14:09:33;12.40;;;3.97;;
54555;SDS011;57291;37.520;15.106;2023-06-10T14:12:00;7.57;;;3.22;;
54555;SDS011;57291;37.520;15.106;2023-06-10T14:14:30;5.38;;;2.40;;
54555;SDS011;57291;37.520;15.106;2023-06-10T14:17:01;8.07;;;3.30;;
54555;SDS011;57291;37.520;15.106;2023-06-10T14:19:28;6.60;;;3.00;;
54555;SDS011;57291;37.520;15.106;2023-06-10T14:21:56;11.20;;;3.30;;
54555;SDS011;57291;37.520;15.106;2023-06-10T14:24:23;11.18;;;3.40;;
54555;SDS011;57291;37.520;15.106;2023-06-10T14:26:51;9.70;;;2.65;;
54555;SDS011;57291;37.520;15.106;2023-06-10T14:29:19;6.53;;;2.65;;
54555;SDS011;57291;37.520;15.106;2023-06-10T14:31:47;9.23;;;2.78;;
54555;SDS011;57291;37.520;15.106;2023-06-10T14:34:15;9.35;;;2.90;;
54555;SDS011;57291;37.520;15.106;2023-06-10T14:36:43;7.85;;;2.70;;
54555;SDS011;57291;37.520;15.106;2023-06-10T14:39:14;9.05;;;2.80;;
54555;SDS011;57291;37.520;15.106;2023-06-10T14:41:42;8.93;;;2.55;;
54555;SDS011;57291;37.520;15.106;2023-06-10T14:44:10;7.72;;;2.80;;
54555;SDS011;57291;37.520;15.106;2023-06-10T14:46:37;10.55;;;2.88;;
54555;SDS011;57291;37.520;15.106;2023-06-10T14:49:05;12.32;;;3.10;;